Calumet, IA

03:09 AM CDT del 22 Settembre 2014 (GMT -0500)
Orange City Municipal | Change Station
CLOSE
Current Station
Aeroporto
Location: Orange City,
Altitudine: 1414 ft
Stazioni meteo nelle vicinanze

Alt. 1414 ft 42.99 °N, 96.06 °W | Updated 14 minutes ago

Parzialmente nuvoloso
Parzialmente nuvoloso
50 °F
Sembra 50 °F
N
0
Vento Variabile Vento da Nord

Oggi
Massima -- | Minima -- °F
--% Possibilità di precip.
Ieri
Massima -- | Minima -- °F
Precip. -- in
7:09 AM 7:19 PM
Luna calante, 3% visible
Pressione 30.28 in
Visibilità 10.0 miglia
Nuvole Sereno
Punto di rugiada 45 °F
Umidità 82%
Piovosità 0.00 in
Spessore del manto nevoso Non disponibile.
Raggi UV 0 fuori da 12
Polline 5.40 fuori da 12
Qualità dell'aria Non disponibile.
Flu Activity Non disponibile.
METAR KORC 220755Z AUTO 00000KT 10SM CLR 10/07 A3028 RMK AO2

More Conditions Fewer Conditions

Pressione 30.28 in
Visibilità 10.0 miglia
Nuvole Sereno
Punto di rugiada 45 °F
Umidità 82%
Piovosità 0.00 in
Spessore del manto nevoso Non disponibile.
Raggi UV 0 fuori da 12
Polline 5.40 fuori da 12
Qualità dell'aria Non disponibile.
Flu Activity Non disponibile.
METAR KORC 220755Z AUTO 00000KT 10SM CLR 10/07 A3028 RMK AO2

More Conditions Fewer Conditions

10-Day Weather Forecast

Almanac

Astronomia

Sep. 22, 2014 Alba Tramonto
Ora attuale 07:09 CDT 19:19 CDT
Crepuscolo civile 06:41 CDT 19:47 CDT
Crepuscolo nautico 06:08 CDT 20:20 CDT
Crepuscolo astronomico 05:34 CDT 20:54 CDT
Luna 05:37 CDT 18:28 CDT
Estensione della luce visibile 13h 06m
Lunghezza del giorno
12h 09m
Tomorrow will be 2m 54s shorter.
Luna calante, 3% of the Moon is Illuminated
Oggi
Luna calante
Set 24
Nuovo
Ott 1
Primo quarto
Ott 8
Luna piena
Ott 15
Ultimo quarto

Gli estremi di oggi

State Highs State Lows

Community

WunderPhotos

Upload Photos

1,755,392 foto caricate!

Nearby

Profondità neve

Stazione Profondità Altitudine
Non sono state evidenziate nuove nevicate

Attività sismica

Città  Distanza Mag. Data & Ora
Non sono state riportate attività sismiche nelle vicinanze.
Minimo Magnitudo Mostrato è 2.5.

Temperature delle acque costiere

Località Temperatura
Nessun dato dalle stazioni

Stazioni meteo nelle vicinanze